Time;durP1;ratioP1;P1;durP2;ratioP2;P2;SDS_P1;SDS_P2;PMS_P1;PMS_P2;Temp;Humidity;BMP_temperature;BMP_pressure;BME280_temperature;BME280_humidity;BME280_pressure;Samples;Min_cycle;Max_cycle;Signal;HPM_P1;HPM_P2
2023/07/17 00:02:17;;;;;;;;;;;;;;;18.73;69.99;99575.22;6229406;22;19926;-94
2023/07/17 00:05:23;;;;;;;;;;;;;;;18.66;70.56;99568.69;6233267;22;20335;-90
2023/07/17 00:08:26;;;;;;;;;;;;;;;18.63;70.58;99561.91;6225763;22;19980;-88
2023/07/17 00:10:52;;;;;;;;;;;;;;;18.60;70.73;99562.63;6252228;22;20445;-92
2023/07/17 00:13:17;;;;;;;;;;;;;;;18.61;70.91;99560.66;6226584;22;19919;-90
2023/07/17 00:15:43;;;;;;;;;;;;;;;18.56;70.52;99567.28;6227723;22;19998;-91
2023/07/17 00:18:15;;;;;;;;;;;;;;;18.55;70.60;99572.03;6215151;22;19931;-92
2023/07/17 00:21:06;;;;;;;;;;;;;;;18.50;70.86;99565.94;6217269;23;19920;-90
2023/07/17 00:23:57;;;;;;;;;;;;;;;18.50;70.61;99568.72;6187389;23;19924;-90
2023/07/17 00:26:40;;;;;;;;;;;;;;;18.47;71.00;99567.47;6276677;22;19930;-91
2023/07/17 00:29:25;;;;;;;;;;;;;;;18.44;70.77;99561.84;6225533;22;19923;-90
2023/07/17 00:31:51;;;;;;;;;;;;;;;18.38;71.37;99566.88;6225762;22;19992;-90
2023/07/17 00:34:18;;;;;;;;;;;;;;;18.38;71.13;99566.06;6201690;23;19935;-90
2023/07/17 00:36:45;;;;;;;;;;;;;;;18.36;71.18;99571.16;6184425;22;19946;-90
2023/07/17 00:39:11;;;;;;;;;;;;;;;18.26;71.69;99569.72;6227383;22;20411;-91
2023/07/17 00:41:45;;;;;;;;;;;;;;;18.29;71.82;99574.56;6201320;22;19919;-91
2023/07/17 00:44:11;;;;;;;;;;;;;;;18.28;71.41;99578.50;6200625;22;19966;-91
2023/07/17 00:46:43;;;;;;;;;;;;;;;18.33;71.23;99569.91;6225119;22;20207;-91
2023/07/17 00:49:10;;;;;;;;;;;;;;;18.32;71.37;99573.84;6224098;22;20375;-89
2023/07/17 00:51:39;;;;;;;;;;;;;;;18.30;71.47;99573.38;6224351;22;19966;-92
2023/07/17 00:54:08;;;;;;;;;;;;;;;18.28;71.53;99579.28;6200490;22;19919;-93
2023/07/17 00:56:35;;;;;;;;;;;;;;;18.25;71.83;99573.66;6199602;22;19969;-92
2023/07/17 00:59:26;;;;;;;;;;;;;;;18.22;72.05;99577.94;6200809;22;19919;-90
2023/07/17 01:02:20;;;;;;;;;;;;;;;18.21;72.08;99576.34;6201532;22;19926;-90
2023/07/17 01:04:55;;;;;;;;;;;;;;;18.20;71.83;99574.72;6204547;22;19919;-92
2023/07/17 01:07:39;;;;;;;;;;;;;;;18.19;72.04;99570.34;6229177;22;19919;-90
2023/07/17 01:10:46;;;;;;;;;;;;;;;18.19;71.38;99575.09;6228417;22;20261;-90
2023/07/17 01:13:37;;;;;;;;;;;;;;;18.22;71.23;99571.63;6225557;22;19926;-91
2023/07/17 01:16:31;;;;;;;;;;;;;;;18.16;71.69;99571.06;6200425;22;20266;-91
2023/07/17 01:21:57;;;;;;;;;;;;;;;18.11;72.06;99578.84;6251363;22;19919;-92
2023/07/17 01:24:48;;;;;;;;;;;;;;;18.03;72.11;99578.66;6203143;22;19923;-90
2023/07/17 01:27:14;;;;;;;;;;;;;;;18.02;72.87;99577.06;6200259;22;19930;-91
2023/07/17 01:29:49;;;;;;;;;;;;;;;18.01;72.06;99575.47;6200658;22;19919;-90
2023/07/17 01:32:35;;;;;;;;;;;;;;;18.01;72.79;99577.41;6200122;22;19951;-91
2023/07/17 01:35:31;;;;;;;;;;;;;;;18.03;72.52;99584.19;6191814;22;20247;-91
2023/07/17 01:38:23;;;;;;;;;;;;;;;18.05;72.29;99587.41;6234968;22;20032;-91
2023/07/17 01:41:15;;;;;;;;;;;;;;;18.02;72.89;99590.09;6249384;22;19926;-89
2023/07/17 01:43:41;;;;;;;;;;;;;;;17.97;72.79;99593.91;6225939;22;20006;-94
2023/07/17 01:46:33;;;;;;;;;;;;;;;17.97;72.82;99591.16;6234536;22;19923;-91
2023/07/17 01:49:26;;;;;;;;;;;;;;;17.89;73.75;99588.56;6253435;22;20331;-90
2023/07/17 01:52:26;;;;;;;;;;;;;;;17.91;73.57;99592.56;6251601;22;19919;-90
2023/07/17 02:04:23;;;;;;;;;;;;;;;18.01;72.72;99592.06;6187282;22;20356;-91
2023/07/17 02:06:49;;;;;;;;;;;;;;;18.03;72.92;99595.25;6213551;22;19919;-90
2023/07/17 02:09:21;;;;;;;;;;;;;;;18.02;72.88;99590.09;6211327;22;19965;-91
2023/07/17 02:12:24;;;;;;;;;;;;;;;18.03;73.05;99600.78;6214263;22;19925;-93
2023/07/17 02:14:51;;;;;;;;;;;;;;;18.08;71.94;99591.44;6240145;22;19919;-93
2023/07/17 02:17:17;;;;;;;;;;;;;;;18.14;72.30;99598.28;6227569;22;19925;-92
2023/07/17 02:19:55;;;;;;;;;;;;;;;18.21;71.47;99603.19;6238379;22;20010;-92
2023/07/17 02:22:24;;;;;;;;;;;;;;;18.28;71.32;99595.91;6224968;22;20682;-91
2023/07/17 02:24:50;;;;;;;;;;;;;;;18.32;70.92;99604.28;6226108;22;19961;-91
2023/07/17 02:27:16;;;;;;;;;;;;;;;18.38;70.84;99608.41;6227105;22;19926;-92
2023/07/17 02:30:10;;;;;;;;;;;;;;;18.39;70.94;99601.69;6222104;23;19960;-92
2023/07/17 02:33:10;;;;;;;;;;;;;;;18.48;71.19;99601.50;6197822;23;19920;-93
2023/07/17 02:36:13;;;;;;;;;;;;;;;18.53;69.85;99599.25;6198945;23;19919;-94
2023/07/17 02:39:38;;;;;;;;;;;;;;;18.62;69.97;99601.03;6206038;23;19923;-92
2023/07/17 02:42:06;;;;;;;;;;;;;;;18.67;69.83;99601.53;6197735;23;19972;-92
2023/07/17 02:44:49;;;;;;;;;;;;;;;18.71;69.09;99602.44;6197972;23;19920;-94
2023/07/17 02:47:49;;;;;;;;;;;;;;;18.72;69.26;99601.31;6197653;23;19926;-94
2023/07/17 02:50:20;;;;;;;;;;;;;;;18.77;69.39;99600.22;6197417;23;19954;-92
2023/07/17 02:52:46;;;;;;;;;;;;;;;18.78;68.80;99610.16;6251532;23;19915;-93
2023/07/17 02:55:13;;;;;;;;;;;;;;;18.83;69.13;99606.28;6198188;23;19996;-92
2023/07/17 02:57:38;;;;;;;;;;;;;;;18.90;69.11;99609.22;6223428;23;19924;-93
2023/07/17 03:00:12;;;;;;;;;;;;;;;18.90;68.67;99610.00;6199119;23;19926;-93
2023/07/17 03:05:29;;;;;;;;;;;;;;;18.97;67.91;99606.59;6255650;22;19931;-91
2023/07/17 03:11:52;;;;;;;;;;;;;;;19.07;67.62;99617.09;6319325;22;19919;-92
2023/07/17 03:14:46;;;;;;;;;;;;;;;19.09;67.20;99614.00;6234145;22;19919;-90
2023/07/17 03:17:13;;;;;;;;;;;;;;;19.10;67.35;99612.81;6244233;22;19919;-92
2023/07/17 03:19:39;;;;;;;;;;;;;;;19.11;67.26;99608.91;6239928;22;19923;-92
2023/07/17 03:22:08;;;;;;;;;;;;;;;19.10;67.46;99616.38;6259888;22;20013;-94
2023/07/17 03:24:48;;;;;;;;;;;;;;;19.15;67.62;99618.09;6294953;22;19933;-91
2023/07/17 03:29:59;;;;;;;;;;;;;;;19.15;67.86;99618.09;6164047;23;19933;-93
2023/07/17 03:40:25;;;;;;;;;;;;;;;19.08;68.69;99624.28;6258059;22;19923;-93
2023/07/17 03:43:20;;;;;;;;;;;;;;;19.06;67.49;99623.81;6201438;22;19919;-92
2023/07/17 03:48:42;;;;;;;;;;;;;;;18.99;69.42;99618.94;6191942;23;20375;-93
2023/07/17 03:51:38;;;;;;;;;;;;;;;18.97;69.31;99610.19;6142038;23;20298;-91
2023/07/17 03:54:06;;;;;;;;;;;;;;;18.98;70.44;99620.09;6168311;23;19920;-93
2023/07/17 03:56:32;;;;;;;;;;;;;;;18.98;69.38;99620.09;6144383;23;19924;-92
2023/07/17 03:58:59;;;;;;;;;;;;;;;19.00;70.29;99620.53;6200213;22;19939;-93
2023/07/17 04:01:37;;;;;;;;;;;;;;;18.98;68.24;99616.53;6218199;22;19947;-92
2023/07/17 04:07:29;;;;;;;;;;;;;;;19.03;69.03;99619.00;6249621;22;19979;-93
2023/07/17 04:12:59;;;;;;;;;;;;;;;19.02;70.96;99618.22;6222602;22;19931;-93
2023/07/17 04:22:24;;;;;;;;;;;;;;;19.23;69.84;99617.84;6284105;22;19953;-93
2023/07/17 04:25:18;;;;;;;;;;;;;;;19.32;68.19;99619.63;6208800;23;20345;-91
2023/07/17 04:27:50;;;;;;;;;;;;;;;19.40;67.18;99622.19;6202055;23;19994;-94
2023/07/17 04:30:20;;;;;;;;;;;;;;;19.49;67.96;99608.88;6274354;22;19923;-95
2023/07/17 04:32:53;;;;;;;;;;;;;;;19.53;66.97;99610.94;6213089;22;19923;-93
2023/07/17 04:35:20;;;;;;;;;;;;;;;19.59;67.37;99610.28;6215466;22;19923;-92
2023/07/17 04:37:52;;;;;;;;;;;;;;;19.66;66.83;99609.63;6209729;22;20011;-92
2023/07/17 04:40:21;;;;;;;;;;;;;;;19.74;66.02;99611.41;6190306;23;19924;-93
2023/07/17 04:45:55;;;;;;;;;;;;;;;19.88;65.58;99619.19;6313522;22;19922;-92
2023/07/17 04:48:32;;;;;;;;;;;;;;;19.99;65.36;99614.59;6239887;22;19919;-92
2023/07/17 04:52:17;;;;;;;;;;;;;;;20.11;64.81;99617.22;6293726;22;19973;-92
2023/07/17 04:55:21;;;;;;;;;;;;;;;20.24;64.43;99617.84;6266371;22;19919;-93
2023/07/17 04:57:49;;;;;;;;;;;;;;;20.32;63.96;99619.56;6263937;22;19972;-93
2023/07/17 05:00:28;;;;;;;;;;;;;;;20.41;63.16;99620.09;6233968;22;19919;-93
2023/07/17 05:02:57;;;;;;;;;;;;;;;20.50;63.55;99619.06;6210994;23;20216;-94
2023/07/17 05:05:23;;;;;;;;;;;;;;;20.58;63.42;99612.47;6184788;22;19986;-92
2023/07/17 05:07:49;;;;;;;;;;;;;;;20.69;64.53;99618.97;6238649;22;19927;-92
2023/07/17 05:10:29;;;;;;;;;;;;;;;20.75;63.36;99614.69;6237569;22;20057;-91
2023/07/17 05:12:55;;;;;;;;;;;;;;;20.81;60.71;99607.66;6238630;22;19918;-92
2023/07/17 05:15:46;;;;;;;;;;;;;;;20.91;62.25;99611.75;6232850;22;19926;-93
2023/07/17 05:21:59;;;;;;;;;;;;;;;21.11;60.94;99604.88;6259887;22;19919;-94
2023/07/17 05:24:25;;;;;;;;;;;;;;;21.18;60.66;99612.53;6206255;22;19923;-94
2023/07/17 05:26:52;;;;;;;;;;;;;;;21.28;60.59;99616.63;6206855;22;20209;-93
2023/07/17 05:29:18;;;;;;;;;;;;;;;21.35;58.69;99603.63;6207070;22;20460;-94
2023/07/17 05:32:09;;;;;;;;;;;;;;;21.41;57.68;99606.09;6241932;22;19930;-93
2023/07/17 05:34:35;;;;;;;;;;;;;;;21.47;58.46;99604.56;6206302;22;19923;-92
2023/07/17 05:37:01;;;;;;;;;;;;;;;21.52;59.50;99605.06;6206718;22;20377;-93
2023/07/17 05:39:28;;;;;;;;;;;;;;;21.63;58.61;99609.94;6206656;22;20002;-92
2023/07/17 05:41:54;;;;;;;;;;;;;;;21.67;56.98;99614.34;6230442;22;19934;-92
2023/07/17 05:44:20;;;;;;;;;;;;;;;21.74;57.54;99610.84;6231381;22;19919;-94
2023/07/17 05:46:47;;;;;;;;;;;;;;;21.77;55.90;99615.66;6227824;22;19967;-94
2023/07/17 05:49:47;;;;;;;;;;;;;;;21.77;56.93;99608.09;6229191;22;19919;-94
2023/07/17 05:52:36;;;;;;;;;;;;;;;21.83;57.09;99607.75;6137385;23;19925;-94
2023/07/17 05:55:29;;;;;;;;;;;;;;;21.90;57.15;99610.63;6210606;22;19970;-94
2023/07/17 05:57:55;;;;;;;;;;;;;;;22.03;57.26;99609.94;6197143;23;19974;-90
2023/07/17 06:00:25;;;;;;;;;;;;;;;22.10;56.03;99611.22;6250655;23;20475;-90
2023/07/17 06:02:51;;;;;;;;;;;;;;;22.27;57.62;99611.38;6247349;23;19915;-87
2023/07/17 06:05:17;;;;;;;;;;;;;;;22.38;56.50;99613.47;6241042;23;20257;-88
2023/07/17 06:07:43;;;;;;;;;;;;;;;22.44;55.10;99612.72;6243278;23;19916;-90
2023/07/17 06:10:09;;;;;;;;;;;;;;;22.47;55.67;99611.94;6244271;23;20503;-87
2023/07/17 06:12:35;;;;;;;;;;;;;;;22.39;54.50;99621.44;6192136;23;19926;-88
2023/07/17 06:15:01;;;;;;;;;;;;;;;22.43;54.53;99619.47;6244350;23;19915;-89
2023/07/17 06:17:32;;;;;;;;;;;;;;;22.52;55.67;99617.19;6241221;22;19923;-89
2023/07/17 06:19:58;;;;;;;;;;;;;;;22.58;54.56;99608.44;6218297;23;19931;-90
2023/07/17 06:22:32;;;;;;;;;;;;;;;22.65;54.19;99608.50;6217458;23;19915;-87
2023/07/17 06:24:58;;;;;;;;;;;;;;;22.74;54.21;99606.16;6242911;23;20306;-87
2023/07/17 06:27:24;;;;;;;;;;;;;;;22.72;52.49;99614.13;6200297;23;19922;-90
2023/07/17 06:29:51;;;;;;;;;;;;;;;22.74;53.68;99614.53;6246522;23;19919;-88
2023/07/17 06:32:42;;;;;;;;;;;;;;;22.66;51.05;99615.69;6221923;23;19924;-88
2023/07/17 06:35:08;;;;;;;;;;;;;;;22.68;52.09;99610.50;6219161;23;19919;-87
2023/07/17 06:37:34;;;;;;;;;;;;;;;22.79;53.45;99602.22;6244745;23;19927;-85
2023/07/17 06:40:01;;;;;;;;;;;;;;;22.90;53.78;99597.50;6247844;23;19920;-87
2023/07/17 06:42:26;;;;;;;;;;;;;;;22.99;52.03;99606.38;6249796;23;19964;-85
2023/07/17 06:44:52;;;;;;;;;;;;;;;23.00;52.60;99598.78;6248107;23;19920;-87
2023/07/17 06:47:18;;;;;;;;;;;;;;;23.07;52.25;99607.19;6243503;23;20042;-87
2023/07/17 06:49:44;;;;;;;;;;;;;;;23.12;51.87;99604.84;6192976;23;19939;-89
2023/07/17 06:52:10;;;;;;;;;;;;;;;23.18;52.03;99603.28;6246536;22;19920;-88
2023/07/17 06:54:35;;;;;;;;;;;;;;;23.30;53.19;99598.53;6271116;22;19938;-89
2023/07/17 06:57:01;;;;;;;;;;;;;;;23.36;50.42;99594.97;6253723;22;19919;-87
2023/07/17 06:59:28;;;;;;;;;;;;;;;23.34;48.58;99593.75;6256535;22;20473;-86
2023/07/17 07:01:54;;;;;;;;;;;;;;;23.37;49.59;99581.81;6229483;22;19953;-88
2023/07/17 07:04:20;;;;;;;;;;;;;;;23.41;48.91;99597.41;6280199;22;19919;-86
2023/07/17 07:06:46;;;;;;;;;;;;;;;23.45;49.18;99591.84;6280703;22;19922;-89
2023/07/17 07:09:11;;;;;;;;;;;;;;;23.56;49.90;99594.66;6252819;22;20253;-89
2023/07/17 07:11:37;;;;;;;;;;;;;;;23.58;50.31;99575.53;6310181;22;20005;-89
2023/07/17 07:14:59;;;;;;;;;;;;;;;23.62;48.55;99582.72;6286967;22;19915;-90
2023/07/17 07:17:24;;;;;;;;;;;;;;;23.71;49.21;99581.53;6229247;22;20307;-91
2023/07/17 07:19:51;;;;;;;;;;;;;;;23.74;49.08;99584.38;6255577;22;19950;-90
2023/07/17 07:22:16;;;;;;;;;;;;;;;23.80;50.20;99587.56;6231453;22;19918;-88
2023/07/17 07:24:45;;;;;;;;;;;;;;;23.85;49.35;99587.97;6255967;22;19926;-87
2023/07/17 07:27:10;;;;;;;;;;;;;;;23.74;46.88;99592.75;6279949;22;20440;-88
2023/07/17 07:29:36;;;;;;;;;;;;;;;23.74;47.83;99589.97;6254917;22;19918;-88
2023/07/17 07:32:02;;;;;;;;;;;;;;;23.71;47.41;99592.72;6253726;22;19919;-87
2023/07/17 07:34:28;;;;;;;;;;;;;;;23.72;48.35;99578.38;6253266;22;19926;-88
2023/07/17 07:36:54;;;;;;;;;;;;;;;23.85;49.07;99587.19;6253451;22;20370;-88
2023/07/17 07:39:19;;;;;;;;;;;;;;;23.82;47.26;99579.59;6253964;22;19925;-86
2023/07/17 07:41:45;;;;;;;;;;;;;;;23.91;47.51;99591.19;6258645;22;19968;-88
2023/07/17 07:44:11;;;;;;;;;;;;;;;23.73;46.71;99588.34;6280124;22;19946;-86
2023/07/17 07:46:37;;;;;;;;;;;;;;;23.76;47.19;99578.38;6227504;22;19954;-89
2023/07/17 07:49:03;;;;;;;;;;;;;;;23.80;46.94;99577.19;6279906;22;19918;-92
2023/07/17 07:54:19;;;;;;;;;;;;;;;24.06;48.63;99569.66;6283193;22;19926;-87
2023/07/17 07:56:46;;;;;;;;;;;;;;;24.12;46.21;99577.22;6309518;22;19923;-89
2023/07/17 07:59:12;;;;;;;;;;;;;;;24.12;46.31;99571.66;6256840;22;19926;-89
2023/07/17 08:01:38;;;;;;;;;;;;;;;24.21;46.56;99560.09;6308626;22;19980;-87
2023/07/17 08:04:05;;;;;;;;;;;;;;;24.32;46.83;99574.03;6233967;22;19919;-90
2023/07/17 08:06:32;;;;;;;;;;;;;;;24.31;45.64;99561.28;6285326;22;19918;-88
2023/07/17 08:08:58;;;;;;;;;;;;;;;24.38;47.61;99561.28;6255828;22;20363;-89
2023/07/17 08:11:24;;;;;;;;;;;;;;;24.42;44.15;99562.09;6235277;22;20001;-87
2023/07/17 08:13:50;;;;;;;;;;;;;;;24.37;43.42;99560.47;6258342;22;19919;-86
2023/07/17 08:16:16;;;;;;;;;;;;;;;24.42;44.82;99558.50;6256628;22;19963;-85
2023/07/17 08:18:41;;;;;;;;;;;;;;;24.50;45.51;99554.47;6309869;22;19919;-86
2023/07/17 08:21:07;;;;;;;;;;;;;;;24.65;44.74;99558.88;6280866;22;19937;-85
2023/07/17 08:23:36;;;;;;;;;;;;;;;24.74;43.58;99552.88;6253548;22;19922;-93
2023/07/17 08:26:03;;;;;;;;;;;;;;;24.78;44.57;99548.06;6257839;22;19915;-89
2023/07/17 08:28:28;;;;;;;;;;;;;;;24.81;44.47;99548.03;6257656;22;20386;-91
2023/07/17 08:30:54;;;;;;;;;;;;;;;24.72;42.94;99547.66;6259338;22;19921;-90
2023/07/17 08:33:21;;;;;;;;;;;;;;;24.88;46.45;99538.84;6282477;22;20348;-87
2023/07/17 08:35:47;;;;;;;;;;;;;;;25.02;44.83;99544.38;6283060;22;19926;-88
2023/07/17 08:38:13;;;;;;;;;;;;;;;25.04;44.75;99535.59;6261783;22;20274;-87
2023/07/17 08:40:41;;;;;;;;;;;;;;;25.14;45.45;99529.19;6312809;22;19918;-88
2023/07/17 08:43:12;;;;;;;;;;;;;;;25.18;43.68;99527.16;6259344;22;20017;-91
2023/07/17 08:45:38;;;;;;;;;;;;;;;25.22;42.88;99527.13;6235657;22;19918;-90
2023/07/17 08:48:11;;;;;;;;;;;;;;;25.15;44.15;99527.19;6233186;22;20107;-89
2023/07/17 08:50:38;;;;;;;;;;;;;;;25.14;43.21;99531.97;6262126;22;19922;-91
2023/07/17 09:02:35;;;;;;;;;;;;;;;25.28;44.43;99517.13;6320138;22;20284;-90
2023/07/17 09:05:03;;;;;;;;;;;;;;;25.41;43.23;99521.03;6259880;22;20482;-91
2023/07/17 09:07:30;;;;;;;;;;;;;;;25.46;42.37;99520.63;6239256;22;19919;-90
2023/07/17 09:10:19;;;;;;;;;;;;;;;25.51;43.60;99517.38;6286252;22;20010;-89
2023/07/17 09:12:55;;;;;;;;;;;;;;;25.48;41.78;99515.41;6321901;22;19958;-89
2023/07/17 09:15:21;;;;;;;;;;;;;;;25.49;43.69;99519.78;6236702;22;19919;-88
2023/07/17 09:17:52;;;;;;;;;;;;;;;25.58;42.20;99515.75;6287619;22;19919;-89
2023/07/17 09:20:27;;;;;;;;;;;;;;;25.63;42.72;99518.91;6260805;22;19919;-91
2023/07/17 09:22:58;;;;;;;;;;;;;;;25.55;40.68;99518.16;6262813;22;19965;-90
2023/07/17 09:25:28;;;;;;;;;;;;;;;25.56;40.53;99516.13;6256514;22;19984;-90
2023/07/17 09:27:54;;;;;;;;;;;;;;;25.63;40.29;99520.91;6232967;22;20571;-89
2023/07/17 09:30:25;;;;;;;;;;;;;;;25.65;41.15;99513.69;6231808;22;19919;-88
2023/07/17 09:33:03;;;;;;;;;;;;;;;25.70;40.88;99510.47;6286291;22;19930;-90
2023/07/17 09:35:31;;;;;;;;;;;;;;;25.77;42.32;99509.63;6259593;22;19927;-88
2023/07/17 09:37:59;;;;;;;;;;;;;;;25.85;40.94;99504.78;6286983;22;19993;-89
2023/07/17 09:40:28;;;;;;;;;;;;;;;25.99;41.26;99507.47;6259595;22;19925;-89
2023/07/17 09:42:55;;;;;;;;;;;;;;;26.06;39.53;99513.03;6284783;22;20002;-90
2023/07/17 09:45:21;;;;;;;;;;;;;;;25.97;39.45;99505.09;6261113;22;19923;-92
2023/07/17 09:47:54;;;;;;;;;;;;;;;25.91;39.71;99509.53;6236576;22;19926;-91
2023/07/17 09:50:22;;;;;;;;;;;;;;;25.77;41.09;99504.81;6231492;22;20006;-88
2023/07/17 09:52:50;;;;;;;;;;;;;;;25.66;39.66;99515.31;6311052;22;19925;-88
2023/07/17 09:55:17;;;;;;;;;;;;;;;25.70;40.22;99504.06;6261155;22;20408;-89
2023/07/17 09:57:45;;;;;;;;;;;;;;;25.73;40.19;99506.06;6312826;22;19918;-88
2023/07/17 10:00:18;;;;;;;;;;;;;;;25.85;41.13;99499.97;6258910;22;19919;-88
2023/07/17 10:02:47;;;;;;;;;;;;;;;26.02;41.52;99509.44;6234494;22;19943;-86
2023/07/17 10:05:14;;;;;;;;;;;;;;;26.21;42.65;99505.28;6314638;22;19918;-90
2023/07/17 10:07:43;;;;;;;;;;;;;;;26.22;38.70;99502.06;6315007;22;20379;-87
2023/07/17 10:10:09;;;;;;;;;;;;;;;26.15;39.09;99502.13;6287195;22;20028;-90
2023/07/17 10:12:38;;;;;;;;;;;;;;;26.04;36.47;99498.63;6291254;22;19919;-87
2023/07/17 10:15:09;;;;;;;;;;;;;;;26.05;36.80;99502.22;6261536;22;19922;-86
2023/07/17 10:17:35;;;;;;;;;;;;;;;26.16;36.90;99492.50;6237413;22;19929;-91
2023/07/17 10:20:09;;;;;;;;;;;;;;;26.29;37.05;99504.00;6261871;22;19922;-91
2023/07/17 10:22:39;;;;;;;;;;;;;;;26.37;37.18;99491.50;6289874;22;19919;-92
2023/07/17 10:25:19;;;;;;;;;;;;;;;26.47;38.26;99499.03;6291622;22;20425;-85
2023/07/17 10:27:59;;;;;;;;;;;;;;;26.54;36.61;99491.75;6284107;22;19919;-87
2023/07/17 10:30:26;;;;;;;;;;;;;;;26.48;35.44;99492.22;6298971;22;19965;-88
2023/07/17 10:33:05;;;;;;;;;;;;;;;26.48;36.46;99494.22;6270994;22;20398;-88
2023/07/17 10:35:46;;;;;;;;;;;;;;;26.63;37.94;99478.06;6262150;22;19918;-88
2023/07/17 10:38:13;;;;;;;;;;;;;;;26.86;38.06;99471.78;6312099;22;19926;-87
2023/07/17 10:40:39;;;;;;;;;;;;;;;26.96;38.41;99482.06;6318486;22;19920;-86
2023/07/17 10:43:11;;;;;;;;;;;;;;;26.89;34.28;99484.97;6262056;22;19967;-87
2023/07/17 10:45:42;;;;;;;;;;;;;;;26.74;34.30;99480.72;6289028;22;19919;-88
2023/07/17 10:48:10;;;;;;;;;;;;;;;26.70;35.54;99469.56;6317128;22;19925;-87
2023/07/17 10:50:37;;;;;;;;;;;;;;;26.88;36.22;99475.72;6316858;22;19919;-87
2023/07/17 10:53:09;;;;;;;;;;;;;;;27.03;37.09;99472.75;6314795;22;19972;-87
2023/07/17 10:55:35;;;;;;;;;;;;;;;26.97;36.36;99463.22;6289616;22;19927;-91
2023/07/17 10:58:01;;;;;;;;;;;;;;;27.12;37.09;99459.00;6272704;22;20368;-89
2023/07/17 11:00:28;;;;;;;;;;;;;;;27.11;35.18;99463.00;6267373;22;19997;-88
2023/07/17 11:02:57;;;;;;;;;;;;;;;27.24;36.85;99452.84;6239879;22;19973;-90
2023/07/17 11:05:23;;;;;;;;;;;;;;;27.40;35.34;99452.22;6250761;22;19919;-92
2023/07/17 11:07:49;;;;;;;;;;;;;;;27.51;36.00;99446.41;6231436;22;20286;-88
2023/07/17 11:10:15;;;;;;;;;;;;;;;27.50;34.12;99445.63;6249883;22;19923;-88
2023/07/17 11:12:42;;;;;;;;;;;;;;;27.24;34.16;99441.59;6226179;22;19931;-89
2023/07/17 11:15:16;;;;;;;;;;;;;;;27.39;34.90;99448.59;6204910;22;19919;-87
2023/07/17 11:17:45;;;;;;;;;;;;;;;27.56;34.34;99448.75;6255086;22;20005;-90
2023/07/17 11:20:12;;;;;;;;;;;;;;;27.59;34.21;99439.50;6207132;22;19968;-87
2023/07/17 11:22:42;;;;;;;;;;;;;;;27.66;34.51;99439.38;6254401;22;20341;-88
2023/07/17 11:25:13;;;;;;;;;;;;;;;27.68;34.89;99441.75;6280508;22;19919;-90
2023/07/17 11:27:40;;;;;;;;;;;;;;;27.49;35.74;99430.00;6256868;22;19941;-89
2023/07/17 11:30:16;;;;;;;;;;;;;;;27.48;35.11;99439.63;6280689;22;19923;-87
2023/07/17 11:32:42;;;;;;;;;;;;;;;27.37;34.12;99434.19;6252070;22;19927;-85
2023/07/17 11:35:11;;;;;;;;;;;;;;;27.43;35.03;99437.31;6250654;22;19919;-88
2023/07/17 11:37:39;;;;;;;;;;;;;;;27.66;37.50;99433.75;6225999;22;19919;-89
2023/07/17 11:40:07;;;;;;;;;;;;;;;27.82;35.64;99428.28;6252584;22;19926;-89
2023/07/17 11:42:52;;;;;;;;;;;;;;;28.07;35.21;99427.84;6228528;22;19927;-88
2023/07/17 11:45:28;;;;;;;;;;;;;;;28.10;34.80;99421.34;6281818;22;19919;-91
2023/07/17 11:48:16;;;;;;;;;;;;;;;28.22;34.84;99431.19;6227847;22;19965;-93
2023/07/17 11:50:49;;;;;;;;;;;;;;;28.30;34.54;99427.00;6206987;22;19941;-91
2023/07/17 11:53:16;;;;;;;;;;;;;;;28.42;34.47;99422.81;6253230;22;20345;-90
2023/07/17 11:55:47;;;;;;;;;;;;;;;28.67;34.79;99413.84;6281167;22;19919;-89
2023/07/17 11:58:16;;;;;;;;;;;;;;;28.51;33.53;99413.78;6226127;22;19926;-90
2023/07/17 12:00:53;;;;;;;;;;;;;;;28.16;34.06;99415.25;6226117;22;19919;-90
2023/07/17 12:03:28;;;;;;;;;;;;;;;28.01;34.45;99409.91;6204960;22;23004;-90
2023/07/17 12:05:55;;;;;;;;;;;;;;;27.86;34.08;99406.53;6252367;22;19994;-90
2023/07/17 12:08:21;;;;;;;;;;;;;;;27.62;35.63;99407.75;6202012;22;19915;-90
2023/07/17 12:10:48;;;;;;;;;;;;;;;27.44;37.48;99407.22;6225390;22;19919;-88
2023/07/17 12:13:14;;;;;;;;;;;;;;;27.24;38.09;99407.13;6221213;22;19922;-87
2023/07/17 12:15:41;;;;;;;;;;;;;;;27.39;36.74;99400.88;6249771;22;19922;-86
2023/07/17 12:18:07;;;;;;;;;;;;;;;27.70;35.47;99399.97;6246686;22;19919;-87
2023/07/17 12:20:33;;;;;;;;;;;;;;;28.03;36.54;99389.78;6248115;22;19926;-89
2023/07/17 12:26:28;;;;;;;;;;;;;;;28.40;32.91;99382.28;6102333;23;19960;-91
2023/07/17 12:29:08;;;;;;;;;;;;;;;28.59;33.17;99381.47;6055846;23;19925;-91
2023/07/17 12:32:11;;;;;;;;;;;;;;;28.72;35.79;99373.16;6079905;23;19920;-93
2023/07/17 12:37:52;;;;;;;;;;;;;;;28.80;33.22;99377.41;6074284;23;19925;-94
2023/07/17 12:40:18;;;;;;;;;;;;;;;28.96;33.84;99373.84;6055447;23;19921;-92
2023/07/17 12:42:45;;;;;;;;;;;;;;;29.09;33.13;99366.31;6078191;23;20408;-94
2023/07/17 12:45:10;;;;;;;;;;;;;;;29.03;31.62;99373.69;6077995;23;19925;-90
2023/07/17 12:47:40;;;;;;;;;;;;;;;29.18;32.44;99368.53;6098134;23;19933;-90
2023/07/17 12:50:06;;;;;;;;;;;;;;;29.12;31.50;99371.09;6095868;23;19969;-90
2023/07/17 12:52:31;;;;;;;;;;;;;;;29.21;32.44;99365.66;6070426;23;19992;-89
2023/07/17 12:55:05;;;;;;;;;;;;;;;29.24;31.04;99361.94;6147405;22;20361;-88
2023/07/17 12:57:31;;;;;;;;;;;;;;;29.26;31.37;99358.69;6255225;22;19919;-90
2023/07/17 12:59:59;;;;;;;;;;;;;;;29.35;32.07;99358.88;6279686;22;20424;-90
2023/07/17 13:02:25;;;;;;;;;;;;;;;29.44;30.12;99355.44;6228719;22;19915;-89
2023/07/17 13:04:51;;;;;;;;;;;;;;;29.42;30.70;99352.25;6230159;22;19918;-90
2023/07/17 13:07:42;;;;;;;;;;;;;;;29.31;28.94;99355.34;6254966;22;20292;-89
2023/07/17 13:10:12;;;;;;;;;;;;;;;29.30;30.43;99350.94;6272607;22;19926;-89
2023/07/17 13:12:37;;;;;;;;;;;;;;;29.36;29.92;99342.75;6308397;22;19990;-93
2023/07/17 13:15:06;;;;;;;;;;;;;;;29.42;29.69;99347.41;6309845;22;19941;-87
2023/07/17 13:17:33;;;;;;;;;;;;;;;29.53;30.54;99346.34;6254794;22;20269;-88
2023/07/17 13:23:38;;;;;;;;;;;;;;;29.63;32.46;99353.75;6305823;22;19989;-89
2023/07/17 13:26:14;;;;;;;;;;;;;;;29.69;30.44;99340.72;6280792;22;19919;-91
2023/07/17 13:28:41;;;;;;;;;;;;;;;29.79;29.70;99344.50;6285761;22;19949;-90
2023/07/17 13:31:07;;;;;;;;;;;;;;;29.78;31.00;99340.13;6256245;22;19923;-89
2023/07/17 13:33:34;;;;;;;;;;;;;;;29.71;30.05;99341.09;6285951;22;19949;-88
2023/07/17 13:36:00;;;;;;;;;;;;;;;29.77;30.56;99335.69;6257913;22;19926;-87
2023/07/17 13:38:30;;;;;;;;;;;;;;;29.62;28.28;99343.75;6232297;22;19988;-93
2023/07/17 13:40:56;;;;;;;;;;;;;;;29.48;29.66;99340.03;6232763;22;19919;-87
2023/07/17 13:43:46;;;;;;;;;;;;;;;29.43;31.70;99339.75;6230122;22;19959;-88
2023/07/17 13:46:32;;;;;;;;;;;;;;;29.45;30.80;99334.50;6216807;23;19939;-88
2023/07/17 13:49:07;;;;;;;;;;;;;;;29.52;30.35;99344.78;6189377;23;19916;-93
2023/07/17 13:51:33;;;;;;;;;;;;;;;29.48;28.42;99337.22;6185899;23;20364;-87
2023/07/17 13:54:01;;;;;;;;;;;;;;;29.41;30.02;99328.16;6162378;23;19916;-93
2023/07/17 13:56:27;;;;;;;;;;;;;;;29.42;29.54;99324.09;6191272;23;19930;-91
2023/07/17 13:58:56;;;;;;;;;;;;;;;29.52;32.67;99323.03;6139877;23;19970;-90
2023/07/17 14:01:22;;;;;;;;;;;;;;;29.42;29.51;99316.44;6191719;23;19927;-87
2023/07/17 14:04:03;;;;;;;;;;;;;;;29.55;30.51;99318.53;6196448;23;19920;-89
2023/07/17 14:06:37;;;;;;;;;;;;;;;29.51;29.92;99315.81;6163410;23;20425;-86
2023/07/17 14:09:03;;;;;;;;;;;;;;;29.59;32.11;99314.38;6183619;23;19919;-86
2023/07/17 14:11:33;;;;;;;;;;;;;;;29.77;30.14;99310.34;6160166;23;20026;-92
2023/07/17 14:14:00;;;;;;;;;;;;;;;29.85;31.25;99320.97;6183380;23;19975;-87
2023/07/17 14:16:26;;;;;;;;;;;;;;;29.81;30.17;99306.19;6182621;23;19920;-84
2023/07/17 14:19:02;;;;;;;;;;;;;;;29.51;31.38;99315.81;6185207;23;19926;-92
2023/07/17 14:21:28;;;;;;;;;;;;;;;29.46;32.00;99305.88;6160533;23;19920;-86
2023/07/17 14:23:55;;;;;;;;;;;;;;;29.12;31.47;99306.34;6223802;22;19926;-86
2023/07/17 14:26:27;;;;;;;;;;;;;;;28.78;31.83;99315.94;6223361;22;19931;-88
2023/07/17 14:28:53;;;;;;;;;;;;;;;28.54;31.98;99312.47;6246529;22;19998;-86
2023/07/17 14:31:19;;;;;;;;;;;;;;;28.59;32.01;99305.53;6274361;22;19935;-90